sensor_id;sensor_type;location;lat;lon;timestamp;P1;durP1;ratioP1;P2;durP2;ratioP2
42084;SDS011;27746;52.228;20.890;2022-12-04T00:01:55;96.22;;;34.10;;
42084;SDS011;27746;52.228;20.890;2022-12-04T00:04:22;86.95;;;35.03;;
42084;SDS011;27746;52.228;20.890;2022-12-04T00:06:49;84.78;;;34.30;;
42084;SDS011;27746;52.228;20.890;2022-12-04T00:09:17;89.63;;;35.40;;
42084;SDS011;27746;52.228;20.890;2022-12-04T00:11:43;91.90;;;33.72;;
42084;SDS011;27746;52.228;20.890;2022-12-04T00:14:10;98.13;;;32.05;;
42084;SDS011;27746;52.228;20.890;2022-12-04T00:16:37;87.65;;;34.67;;
42084;SDS011;27746;52.228;20.890;2022-12-04T00:19:04;94.78;;;33.60;;
42084;SDS011;27746;52.228;20.890;2022-12-04T00:21:30;85.53;;;32.28;;
42084;SDS011;27746;52.228;20.890;2022-12-04T00:23:57;90.78;;;32.42;;
42084;SDS011;27746;52.228;20.890;2022-12-04T00:26:26;92.05;;;35.70;;
42084;SDS011;27746;52.228;20.890;2022-12-04T00:28:55;89.88;;;35.08;;
42084;SDS011;27746;52.228;20.890;2022-12-04T00:31:22;97.13;;;33.88;;
42084;SDS011;27746;52.228;20.890;2022-12-04T00:33:50;99.90;;;35.67;;
42084;SDS011;27746;52.228;20.890;2022-12-04T00:36:19;84.15;;;33.08;;
42084;SDS011;27746;52.228;20.890;2022-12-04T00:38:47;100.00;;;34.53;;
42084;SDS011;27746;52.228;20.890;2022-12-04T00:41:15;108.18;;;37.35;;
42084;SDS011;27746;52.228;20.890;2022-12-04T00:43:44;95.40;;;35.50;;
42084;SDS011;27746;52.228;20.890;2022-12-04T00:46:11;95.18;;;33.40;;
42084;SDS011;27746;52.228;20.890;2022-12-04T00:48:38;91.38;;;35.70;;
42084;SDS011;27746;52.228;20.890;2022-12-04T00:51:06;98.13;;;37.22;;
42084;SDS011;27746;52.228;20.890;2022-12-04T00:53:35;100.32;;;35.67;;
42084;SDS011;27746;52.228;20.890;2022-12-04T00:56:03;92.43;;;34.60;;
42084;SDS011;27746;52.228;20.890;2022-12-04T00:58:30;88.15;;;33.28;;
42084;SDS011;27746;52.228;20.890;2022-12-04T01:01:01;88.32;;;31.45;;
42084;SDS011;27746;52.228;20.890;2022-12-04T01:03:29;85.88;;;34.25;;
42084;SDS011;27746;52.228;20.890;2022-12-04T01:05:56;83.95;;;32.58;;
42084;SDS011;27746;52.228;20.890;2022-12-04T01:08:23;83.00;;;30.50;;
42084;SDS011;27746;52.228;20.890;2022-12-04T01:10:50;85.90;;;32.50;;
42084;SDS011;27746;52.228;20.890;2022-12-04T01:13:17;97.05;;;34.45;;
42084;SDS011;27746;52.228;20.890;2022-12-04T01:15:44;90.70;;;32.45;;
42084;SDS011;27746;52.228;20.890;2022-12-04T01:18:14;88.18;;;34.33;;
42084;SDS011;27746;52.228;20.890;2022-12-04T01:20:45;83.75;;;35.30;;
42084;SDS011;27746;52.228;20.890;2022-12-04T01:23:12;89.57;;;34.65;;
42084;SDS011;27746;52.228;20.890;2022-12-04T01:25:39;80.30;;;30.48;;
42084;SDS011;27746;52.228;20.890;2022-12-04T01:28:14;81.22;;;32.53;;
42084;SDS011;27746;52.228;20.890;2022-12-04T01:30:41;82.20;;;33.33;;
42084;SDS011;27746;52.228;20.890;2022-12-04T01:33:07;76.28;;;29.42;;
42084;SDS011;27746;52.228;20.890;2022-12-04T01:35:35;83.18;;;31.95;;
42084;SDS011;27746;52.228;20.890;2022-12-04T01:38:02;87.72;;;31.17;;
42084;SDS011;27746;52.228;20.890;2022-12-04T01:40:29;85.15;;;32.80;;
42084;SDS011;27746;52.228;20.890;2022-12-04T01:42:56;81.53;;;29.20;;
42084;SDS011;27746;52.228;20.890;2022-12-04T01:45:38;85.28;;;33.03;;
42084;SDS011;27746;52.228;20.890;2022-12-04T01:48:08;77.60;;;30.23;;
42084;SDS011;27746;52.228;20.890;2022-12-04T01:53:08;77.88;;;29.65;;
42084;SDS011;27746;52.228;20.890;2022-12-04T01:55:36;76.57;;;28.17;;
42084;SDS011;27746;52.228;20.890;2022-12-04T01:58:03;74.82;;;29.55;;
42084;SDS011;27746;52.228;20.890;2022-12-04T02:00:32;81.13;;;30.98;;
42084;SDS011;27746;52.228;20.890;2022-12-04T02:02:59;74.15;;;29.55;;
42084;SDS011;27746;52.228;20.890;2022-12-04T02:05:26;82.53;;;29.27;;
42084;SDS011;27746;52.228;20.890;2022-12-04T02:07:56;75.38;;;28.60;;
42084;SDS011;27746;52.228;20.890;2022-12-04T02:10:29;72.80;;;30.88;;
42084;SDS011;27746;52.228;20.890;2022-12-04T02:13:04;79.57;;;29.50;;
42084;SDS011;27746;52.228;20.890;2022-12-04T02:15:40;75.88;;;31.35;;
42084;SDS011;27746;52.228;20.890;2022-12-04T02:18:14;74.40;;;30.27;;
42084;SDS011;27746;52.228;20.890;2022-12-04T02:20:47;83.40;;;31.90;;
42084;SDS011;27746;52.228;20.890;2022-12-04T02:23:27;87.75;;;33.97;;
42084;SDS011;27746;52.228;20.890;2022-12-04T02:26:18;87.30;;;31.17;;
42084;SDS011;27746;52.228;20.890;2022-12-04T02:28:56;68.82;;;27.48;;
42084;SDS011;27746;52.228;20.890;2022-12-04T02:31:31;83.50;;;30.05;;
42084;SDS011;27746;52.228;20.890;2022-12-04T02:34:02;73.78;;;27.85;;
42084;SDS011;27746;52.228;20.890;2022-12-04T02:36:35;79.00;;;29.10;;
42084;SDS011;27746;52.228;20.890;2022-12-04T02:39:08;77.40;;;28.95;;
42084;SDS011;27746;52.228;20.890;2022-12-04T02:41:39;70.80;;;27.27;;
42084;SDS011;27746;52.228;20.890;2022-12-04T02:44:13;70.63;;;27.20;;
42084;SDS011;27746;52.228;20.890;2022-12-04T02:46:46;76.75;;;30.13;;
42084;SDS011;27746;52.228;20.890;2022-12-04T02:49:18;71.15;;;28.92;;
42084;SDS011;27746;52.228;20.890;2022-12-04T02:51:49;78.72;;;29.80;;
42084;SDS011;27746;52.228;20.890;2022-12-04T02:54:20;75.88;;;30.63;;
42084;SDS011;27746;52.228;20.890;2022-12-04T02:56:50;87.32;;;31.02;;
42084;SDS011;27746;52.228;20.890;2022-12-04T02:59:21;76.70;;;30.13;;
42084;SDS011;27746;52.228;20.890;2022-12-04T03:01:52;77.70;;;31.67;;
42084;SDS011;27746;52.228;20.890;2022-12-04T03:04:22;86.90;;;29.50;;
42084;SDS011;27746;52.228;20.890;2022-12-04T03:06:51;86.90;;;31.05;;
42084;SDS011;27746;52.228;20.890;2022-12-04T03:09:22;81.60;;;29.90;;
42084;SDS011;27746;52.228;20.890;2022-12-04T03:11:54;81.07;;;30.60;;
42084;SDS011;27746;52.228;20.890;2022-12-04T03:14:26;85.50;;;31.10;;
42084;SDS011;27746;52.228;20.890;2022-12-04T03:16:57;84.07;;;30.58;;
42084;SDS011;27746;52.228;20.890;2022-12-04T03:19:28;82.72;;;30.63;;
42084;SDS011;27746;52.228;20.890;2022-12-04T03:22:03;77.60;;;29.30;;
42084;SDS011;27746;52.228;20.890;2022-12-04T03:24:35;79.80;;;29.37;;
42084;SDS011;27746;52.228;20.890;2022-12-04T03:27:07;71.93;;;26.77;;
42084;SDS011;27746;52.228;20.890;2022-12-04T03:29:40;71.82;;;27.85;;
42084;SDS011;27746;52.228;20.890;2022-12-04T03:32:10;82.90;;;29.40;;
42084;SDS011;27746;52.228;20.890;2022-12-04T03:34:42;74.25;;;29.17;;
42084;SDS011;27746;52.228;20.890;2022-12-04T03:37:17;76.30;;;30.33;;
42084;SDS011;27746;52.228;20.890;2022-12-04T03:39:50;81.53;;;29.50;;
42084;SDS011;27746;52.228;20.890;2022-12-04T03:42:24;76.88;;;27.95;;
42084;SDS011;27746;52.228;20.890;2022-12-04T03:44:59;72.88;;;28.15;;
42084;SDS011;27746;52.228;20.890;2022-12-04T03:47:28;71.72;;;27.80;;
42084;SDS011;27746;52.228;20.890;2022-12-04T03:50:00;72.50;;;27.35;;
42084;SDS011;27746;52.228;20.890;2022-12-04T03:52:33;72.75;;;27.17;;
42084;SDS011;27746;52.228;20.890;2022-12-04T03:55:06;80.33;;;28.90;;
42084;SDS011;27746;52.228;20.890;2022-12-04T03:57:39;84.80;;;29.92;;
42084;SDS011;27746;52.228;20.890;2022-12-04T04:00:12;77.22;;;29.80;;
42084;SDS011;27746;52.228;20.890;2022-12-04T04:02:41;80.55;;;29.77;;
42084;SDS011;27746;52.228;20.890;2022-12-04T04:05:12;79.28;;;29.48;;
42084;SDS011;27746;52.228;20.890;2022-12-04T04:07:41;76.75;;;29.88;;
42084;SDS011;27746;52.228;20.890;2022-12-04T04:10:13;73.50;;;28.20;;
42084;SDS011;27746;52.228;20.890;2022-12-04T04:12:45;70.25;;;27.60;;
42084;SDS011;27746;52.228;20.890;2022-12-04T04:15:38;72.32;;;25.95;;
42084;SDS011;27746;52.228;20.890;2022-12-04T04:18:27;71.07;;;26.08;;
42084;SDS011;27746;52.228;20.890;2022-12-04T04:21:14;70.90;;;28.42;;
42084;SDS011;27746;52.228;20.890;2022-12-04T04:24:03;70.30;;;27.73;;
42084;SDS011;27746;52.228;20.890;2022-12-04T04:26:41;72.30;;;29.65;;
42084;SDS011;27746;52.228;20.890;2022-12-04T04:29:10;69.55;;;27.30;;
42084;SDS011;27746;52.228;20.890;2022-12-04T04:31:40;67.63;;;26.35;;
42084;SDS011;27746;52.228;20.890;2022-12-04T04:34:13;62.20;;;26.17;;
42084;SDS011;27746;52.228;20.890;2022-12-04T04:36:46;59.60;;;24.13;;
42084;SDS011;27746;52.228;20.890;2022-12-04T04:39:23;66.55;;;25.27;;
42084;SDS011;27746;52.228;20.890;2022-12-04T04:41:56;60.22;;;25.35;;
42084;SDS011;27746;52.228;20.890;2022-12-04T04:44:28;61.15;;;25.77;;
42084;SDS011;27746;52.228;20.890;2022-12-04T04:47:06;53.35;;;23.45;;
42084;SDS011;27746;52.228;20.890;2022-12-04T04:52:05;63.03;;;25.17;;
42084;SDS011;27746;52.228;20.890;2022-12-04T04:54:33;57.90;;;23.73;;
42084;SDS011;27746;52.228;20.890;2022-12-04T04:57:02;58.25;;;24.27;;
42084;SDS011;27746;52.228;20.890;2022-12-04T04:59:29;58.08;;;22.67;;
42084;SDS011;27746;52.228;20.890;2022-12-04T05:01:56;59.65;;;24.25;;
42084;SDS011;27746;52.228;20.890;2022-12-04T05:04:24;65.10;;;24.30;;
42084;SDS011;27746;52.228;20.890;2022-12-04T05:06:51;55.22;;;22.63;;
42084;SDS011;27746;52.228;20.890;2022-12-04T05:09:17;54.72;;;22.45;;
42084;SDS011;27746;52.228;20.890;2022-12-04T05:11:44;56.95;;;22.85;;
42084;SDS011;27746;52.228;20.890;2022-12-04T05:14:11;57.55;;;22.58;;
42084;SDS011;27746;52.228;20.890;2022-12-04T05:16:38;52.80;;;23.10;;
42084;SDS011;27746;52.228;20.890;2022-12-04T05:19:05;56.63;;;25.88;;
42084;SDS011;27746;52.228;20.890;2022-12-04T05:21:51;59.72;;;22.63;;
42084;SDS011;27746;52.228;20.890;2022-12-04T05:24:18;56.95;;;23.85;;
42084;SDS011;27746;52.228;20.890;2022-12-04T05:26:44;63.72;;;25.65;;
42084;SDS011;27746;52.228;20.890;2022-12-04T05:29:11;55.22;;;25.02;;
42084;SDS011;27746;52.228;20.890;2022-12-04T05:31:38;63.30;;;25.95;;
42084;SDS011;27746;52.228;20.890;2022-12-04T05:34:04;61.35;;;27.02;;
42084;SDS011;27746;52.228;20.890;2022-12-04T05:36:31;63.35;;;24.10;;
42084;SDS011;27746;52.228;20.890;2022-12-04T05:38:59;65.22;;;26.05;;
42084;SDS011;27746;52.228;20.890;2022-12-04T05:41:26;66.32;;;24.98;;
42084;SDS011;27746;52.228;20.890;2022-12-04T05:43:53;66.10;;;24.60;;
42084;SDS011;27746;52.228;20.890;2022-12-04T05:46:19;59.72;;;22.17;;
42084;SDS011;27746;52.228;20.890;2022-12-04T05:48:46;61.85;;;23.90;;
42084;SDS011;27746;52.228;20.890;2022-12-04T05:51:13;58.65;;;23.63;;
42084;SDS011;27746;52.228;20.890;2022-12-04T05:53:40;62.50;;;23.00;;
42084;SDS011;27746;52.228;20.890;2022-12-04T05:56:09;63.10;;;24.58;;
42084;SDS011;27746;52.228;20.890;2022-12-04T05:58:36;60.30;;;25.55;;
42084;SDS011;27746;52.228;20.890;2022-12-04T06:01:07;68.03;;;27.58;;
42084;SDS011;27746;52.228;20.890;2022-12-04T06:03:35;69.57;;;27.80;;
42084;SDS011;27746;52.228;20.890;2022-12-04T06:06:02;73.53;;;28.58;;
42084;SDS011;27746;52.228;20.890;2022-12-04T06:08:29;73.63;;;26.92;;
42084;SDS011;27746;52.228;20.890;2022-12-04T06:10:56;64.28;;;27.17;;
42084;SDS011;27746;52.228;20.890;2022-12-04T06:13:24;68.72;;;26.38;;
42084;SDS011;27746;52.228;20.890;2022-12-04T06:15:51;71.32;;;26.98;;
42084;SDS011;27746;52.228;20.890;2022-12-04T06:18:18;68.70;;;25.83;;
42084;SDS011;27746;52.228;20.890;2022-12-04T06:20:44;62.60;;;25.65;;
42084;SDS011;27746;52.228;20.890;2022-12-04T06:23:11;55.72;;;25.08;;
42084;SDS011;27746;52.228;20.890;2022-12-04T06:25:38;62.13;;;24.88;;
42084;SDS011;27746;52.228;20.890;2022-12-04T06:28:05;58.78;;;24.80;;
42084;SDS011;27746;52.228;20.890;2022-12-04T06:30:33;60.72;;;23.25;;
42084;SDS011;27746;52.228;20.890;2022-12-04T06:33:01;56.08;;;24.08;;
42084;SDS011;27746;52.228;20.890;2022-12-04T06:35:27;63.67;;;25.20;;
42084;SDS011;27746;52.228;20.890;2022-12-04T06:37:54;61.25;;;25.70;;
42084;SDS011;27746;52.228;20.890;2022-12-04T06:40:21;62.42;;;23.90;;
42084;SDS011;27746;52.228;20.890;2022-12-04T06:42:48;59.92;;;22.13;;
42084;SDS011;27746;52.228;20.890;2022-12-04T06:45:15;62.58;;;24.25;;
42084;SDS011;27746;52.228;20.890;2022-12-04T06:47:43;61.05;;;25.13;;
42084;SDS011;27746;52.228;20.890;2022-12-04T06:50:09;61.80;;;23.88;;
42084;SDS011;27746;52.228;20.890;2022-12-04T06:52:37;62.85;;;23.67;;
42084;SDS011;27746;52.228;20.890;2022-12-04T06:55:04;55.72;;;22.95;;
42084;SDS011;27746;52.228;20.890;2022-12-04T06:57:32;60.40;;;25.15;;
42084;SDS011;27746;52.228;20.890;2022-12-04T06:59:58;63.97;;;26.02;;
42084;SDS011;27746;52.228;20.890;2022-12-04T07:02:25;55.38;;;22.52;;
42084;SDS011;27746;52.228;20.890;2022-12-04T07:04:54;59.53;;;24.20;;
42084;SDS011;27746;52.228;20.890;2022-12-04T07:07:21;59.25;;;24.95;;
42084;SDS011;27746;52.228;20.890;2022-12-04T07:09:49;58.25;;;23.98;;
42084;SDS011;27746;52.228;20.890;2022-12-04T07:12:16;64.22;;;26.73;;
42084;SDS011;27746;52.228;20.890;2022-12-04T07:14:42;57.75;;;25.55;;
42084;SDS011;27746;52.228;20.890;2022-12-04T07:17:09;63.70;;;24.25;;
42084;SDS011;27746;52.228;20.890;2022-12-04T07:19:36;61.38;;;23.33;;
42084;SDS011;27746;52.228;20.890;2022-12-04T07:22:04;61.38;;;25.23;;
42084;SDS011;27746;52.228;20.890;2022-12-04T07:24:33;54.03;;;22.98;;
42084;SDS011;27746;52.228;20.890;2022-12-04T07:27:00;57.63;;;22.58;;
42084;SDS011;27746;52.228;20.890;2022-12-04T07:29:27;60.42;;;25.60;;
42084;SDS011;27746;52.228;20.890;2022-12-04T07:31:54;57.38;;;22.67;;
42084;SDS011;27746;52.228;20.890;2022-12-04T07:34:21;57.22;;;23.17;;
42084;SDS011;27746;52.228;20.890;2022-12-04T07:36:48;53.55;;;21.92;;
42084;SDS011;27746;52.228;20.890;2022-12-04T07:39:16;58.75;;;23.70;;
42084;SDS011;27746;52.228;20.890;2022-12-04T07:41:43;58.63;;;24.05;;
42084;SDS011;27746;52.228;20.890;2022-12-04T07:44:10;58.92;;;24.00;;
42084;SDS011;27746;52.228;20.890;2022-12-04T07:46:36;61.85;;;23.88;;
42084;SDS011;27746;52.228;20.890;2022-12-04T07:49:03;51.28;;;21.70;;
42084;SDS011;27746;52.228;20.890;2022-12-04T07:51:30;56.13;;;22.98;;
42084;SDS011;27746;52.228;20.890;2022-12-04T07:53:56;63.78;;;24.80;;
42084;SDS011;27746;52.228;20.890;2022-12-04T07:56:24;56.88;;;24.52;;
42084;SDS011;27746;52.228;20.890;2022-12-04T07:58:51;50.88;;;21.27;;
42084;SDS011;27746;52.228;20.890;2022-12-04T08:01:19;53.97;;;23.02;;
42084;SDS011;27746;52.228;20.890;2022-12-04T08:03:47;54.58;;;23.08;;
42084;SDS011;27746;52.228;20.890;2022-12-04T08:06:16;50.40;;;23.13;;
42084;SDS011;27746;52.228;20.890;2022-12-04T08:08:44;49.40;;;23.23;;
42084;SDS011;27746;52.228;20.890;2022-12-04T08:11:12;54.25;;;24.55;;
42084;SDS011;27746;52.228;20.890;2022-12-04T08:13:41;49.85;;;21.58;;
42084;SDS011;27746;52.228;20.890;2022-12-04T08:16:09;45.30;;;22.20;;
42084;SDS011;27746;52.228;20.890;2022-12-04T08:18:37;47.15;;;22.92;;
42084;SDS011;27746;52.228;20.890;2022-12-04T08:21:04;52.15;;;21.85;;
42084;SDS011;27746;52.228;20.890;2022-12-04T08:23:31;44.65;;;21.60;;
42084;SDS011;27746;52.228;20.890;2022-12-04T08:25:58;47.92;;;21.58;;
42084;SDS011;27746;52.228;20.890;2022-12-04T08:28:26;46.50;;;21.92;;
42084;SDS011;27746;52.228;20.890;2022-12-04T08:30:54;50.50;;;22.20;;
42084;SDS011;27746;52.228;20.890;2022-12-04T08:33:27;47.38;;;22.23;;
42084;SDS011;27746;52.228;20.890;2022-12-04T08:35:53;45.20;;;21.92;;
42084;SDS011;27746;52.228;20.890;2022-12-04T08:38:20;53.38;;;22.05;;
42084;SDS011;27746;52.228;20.890;2022-12-04T08:40:47;48.03;;;20.90;;
42084;SDS011;27746;52.228;20.890;2022-12-04T08:43:14;46.17;;;19.85;;
42084;SDS011;27746;52.228;20.890;2022-12-04T08:45:40;49.70;;;21.60;;
42084;SDS011;27746;52.228;20.890;2022-12-04T08:48:09;46.80;;;20.88;;
42084;SDS011;27746;52.228;20.890;2022-12-04T08:50:36;53.88;;;23.50;;
42084;SDS011;27746;52.228;20.890;2022-12-04T08:53:02;46.97;;;22.05;;
42084;SDS011;27746;52.228;20.890;2022-12-04T08:55:29;50.65;;;21.77;;
42084;SDS011;27746;52.228;20.890;2022-12-04T08:57:57;53.58;;;21.88;;
42084;SDS011;27746;52.228;20.890;2022-12-04T09:00:24;51.25;;;21.65;;
42084;SDS011;27746;52.228;20.890;2022-12-04T09:02:51;51.88;;;20.88;;
42084;SDS011;27746;52.228;20.890;2022-12-04T09:05:21;48.22;;;22.17;;
42084;SDS011;27746;52.228;20.890;2022-12-04T09:07:48;47.40;;;22.27;;
42084;SDS011;27746;52.228;20.890;2022-12-04T09:10:15;48.42;;;21.98;;
42084;SDS011;27746;52.228;20.890;2022-12-04T09:12:42;48.25;;;23.55;;
42084;SDS011;27746;52.228;20.890;2022-12-04T09:15:09;50.15;;;22.65;;
42084;SDS011;27746;52.228;20.890;2022-12-04T09:17:36;49.80;;;22.20;;
42084;SDS011;27746;52.228;20.890;2022-12-04T09:20:03;46.88;;;21.17;;
42084;SDS011;27746;52.228;20.890;2022-12-04T09:22:33;42.72;;;20.52;;
42084;SDS011;27746;52.228;20.890;2022-12-04T09:25:00;47.20;;;22.50;;
42084;SDS011;27746;52.228;20.890;2022-12-04T09:27:29;53.13;;;25.02;;
42084;SDS011;27746;52.228;20.890;2022-12-04T09:29:56;43.00;;;22.15;;
42084;SDS011;27746;52.228;20.890;2022-12-04T09:32:22;48.63;;;21.02;;
42084;SDS011;27746;52.228;20.890;2022-12-04T09:34:49;48.03;;;22.42;;
42084;SDS011;27746;52.228;20.890;2022-12-04T09:37:16;49.38;;;21.90;;
42084;SDS011;27746;52.228;20.890;2022-12-04T09:39:44;37.70;;;19.70;;
42084;SDS011;27746;52.228;20.890;2022-12-04T09:42:19;43.58;;;20.10;;
42084;SDS011;27746;52.228;20.890;2022-12-04T09:44:56;45.50;;;21.83;;
42084;SDS011;27746;52.228;20.890;2022-12-04T09:47:27;44.05;;;19.52;;
42084;SDS011;27746;52.228;20.890;2022-12-04T09:49:59;46.88;;;21.00;;
42084;SDS011;27746;52.228;20.890;2022-12-04T09:52:34;43.75;;;20.05;;
42084;SDS011;27746;52.228;20.890;2022-12-04T09:55:11;43.55;;;20.20;;
42084;SDS011;27746;52.228;20.890;2022-12-04T09:57:43;42.53;;;20.25;;
42084;SDS011;27746;52.228;20.890;2022-12-04T10:00:14;45.20;;;20.48;;
42084;SDS011;27746;52.228;20.890;2022-12-04T10:02:43;45.20;;;21.50;;
42084;SDS011;27746;52.228;20.890;2022-12-04T10:05:15;45.90;;;22.35;;
42084;SDS011;27746;52.228;20.890;2022-12-04T10:07:45;44.33;;;22.38;;
42084;SDS011;27746;52.228;20.890;2022-12-04T10:10:25;47.35;;;22.70;;
42084;SDS011;27746;52.228;20.890;2022-12-04T10:13:02;49.78;;;22.00;;
42084;SDS011;27746;52.228;20.890;2022-12-04T10:15:37;46.78;;;22.38;;
42084;SDS011;27746;52.228;20.890;2022-12-04T10:18:13;45.90;;;22.90;;
42084;SDS011;27746;52.228;20.890;2022-12-04T10:20:49;41.10;;;21.50;;
42084;SDS011;27746;52.228;20.890;2022-12-04T10:23:25;46.20;;;20.95;;
42084;SDS011;27746;52.228;20.890;2022-12-04T10:26:01;44.83;;;21.98;;
42084;SDS011;27746;52.228;20.890;2022-12-04T10:28:31;46.10;;;22.30;;
42084;SDS011;27746;52.228;20.890;2022-12-04T10:31:03;40.85;;;21.85;;
42084;SDS011;27746;52.228;20.890;2022-12-04T10:33:36;39.78;;;20.92;;
42084;SDS011;27746;52.228;20.890;2022-12-04T10:36:08;49.03;;;21.98;;
42084;SDS011;27746;52.228;20.890;2022-12-04T10:38:39;45.58;;;23.00;;
42084;SDS011;27746;52.228;20.890;2022-12-04T10:41:13;49.17;;;22.63;;
42084;SDS011;27746;52.228;20.890;2022-12-04T10:43:46;47.67;;;22.05;;
42084;SDS011;27746;52.228;20.890;2022-12-04T10:46:15;47.22;;;24.33;;
42084;SDS011;27746;52.228;20.890;2022-12-04T10:48:46;47.88;;;23.35;;
42084;SDS011;27746;52.228;20.890;2022-12-04T10:51:14;45.00;;;22.05;;
42084;SDS011;27746;52.228;20.890;2022-12-04T10:53:41;43.72;;;20.40;;
42084;SDS011;27746;52.228;20.890;2022-12-04T10:56:12;48.50;;;21.75;;
42084;SDS011;27746;52.228;20.890;2022-12-04T10:58:42;42.05;;;22.10;;
42084;SDS011;27746;52.228;20.890;2022-12-04T11:01:09;43.75;;;22.00;;
42084;SDS011;27746;52.228;20.890;2022-12-04T11:03:38;43.40;;;22.02;;
42084;SDS011;27746;52.228;20.890;2022-12-04T11:06:24;41.08;;;21.58;;
42084;SDS011;27746;52.228;20.890;2022-12-04T11:08:52;42.67;;;23.40;;
42084;SDS011;27746;52.228;20.890;2022-12-04T11:11:23;42.28;;;21.65;;
42084;SDS011;27746;52.228;20.890;2022-12-04T11:13:59;40.42;;;20.85;;
42084;SDS011;27746;52.228;20.890;2022-12-04T11:16:31;49.47;;;22.77;;
42084;SDS011;27746;52.228;20.890;2022-12-04T11:19:00;41.10;;;22.05;;
42084;SDS011;27746;52.228;20.890;2022-12-04T11:21:27;45.55;;;21.95;;
42084;SDS011;27746;52.228;20.890;2022-12-04T11:23:56;42.33;;;21.95;;
42084;SDS011;27746;52.228;20.890;2022-12-04T11:26:29;44.97;;;22.25;;
42084;SDS011;27746;52.228;20.890;2022-12-04T11:28:58;48.22;;;22.65;;
42084;SDS011;27746;52.228;20.890;2022-12-04T11:31:26;43.42;;;21.35;;
42084;SDS011;27746;52.228;20.890;2022-12-04T11:33:56;42.17;;;21.38;;
42084;SDS011;27746;52.228;20.890;2022-12-04T11:36:26;39.35;;;19.10;;
42084;SDS011;27746;52.228;20.890;2022-12-04T11:39:02;41.42;;;21.58;;
42084;SDS011;27746;52.228;20.890;2022-12-04T11:41:32;43.30;;;19.58;;
42084;SDS011;27746;52.228;20.890;2022-12-04T11:43:59;39.85;;;19.00;;
42084;SDS011;27746;52.228;20.890;2022-12-04T11:46:30;41.28;;;18.80;;
42084;SDS011;27746;52.228;20.890;2022-12-04T11:48:58;37.40;;;18.08;;
42084;SDS011;27746;52.228;20.890;2022-12-04T11:51:29;38.35;;;18.52;;
42084;SDS011;27746;52.228;20.890;2022-12-04T11:54:07;33.05;;;17.13;;
42084;SDS011;27746;52.228;20.890;2022-12-04T11:56:46;45.90;;;19.35;;
42084;SDS011;27746;52.228;20.890;2022-12-04T11:59:21;38.67;;;20.27;;
42084;SDS011;27746;52.228;20.890;2022-12-04T12:02:00;40.83;;;19.95;;
42084;SDS011;27746;52.228;20.890;2022-12-04T12:04:54;44.28;;;20.65;;
42084;SDS011;27746;52.228;20.890;2022-12-04T12:07:31;35.20;;;18.67;;
42084;SDS011;27746;52.228;20.890;2022-12-04T12:10:05;38.63;;;19.67;;
42084;SDS011;27746;52.228;20.890;2022-12-04T12:15:13;40.80;;;20.85;;
42084;SDS011;27746;52.228;20.890;2022-12-04T12:17:49;41.40;;;21.35;;
42084;SDS011;27746;52.228;20.890;2022-12-04T12:20:25;37.90;;;20.10;;
42084;SDS011;27746;52.228;20.890;2022-12-04T12:23:01;37.10;;;17.85;;
42084;SDS011;27746;52.228;20.890;2022-12-04T12:25:44;38.40;;;19.98;;
42084;SDS011;27746;52.228;20.890;2022-12-04T12:28:24;38.00;;;21.23;;
42084;SDS011;27746;52.228;20.890;2022-12-04T12:31:06;36.40;;;19.17;;
42084;SDS011;27746;52.228;20.890;2022-12-04T12:33:53;39.90;;;19.60;;
42084;SDS011;27746;52.228;20.890;2022-12-04T12:36:22;41.42;;;19.95;;
42084;SDS011;27746;52.228;20.890;2022-12-04T12:38:52;42.53;;;21.75;;
42084;SDS011;27746;52.228;20.890;2022-12-04T12:41:23;40.08;;;20.42;;
42084;SDS011;27746;52.228;20.890;2022-12-04T12:43:55;40.17;;;20.95;;
42084;SDS011;27746;52.228;20.890;2022-12-04T12:46:27;37.08;;;20.05;;
42084;SDS011;27746;52.228;20.890;2022-12-04T12:49:00;43.50;;;20.25;;
42084;SDS011;27746;52.228;20.890;2022-12-04T12:51:32;40.78;;;20.08;;
42084;SDS011;27746;52.228;20.890;2022-12-04T12:54:05;44.97;;;20.02;;
42084;SDS011;27746;52.228;20.890;2022-12-04T12:56:39;35.55;;;19.25;;
42084;SDS011;27746;52.228;20.890;2022-12-04T12:59:14;39.28;;;19.77;;
42084;SDS011;27746;52.228;20.890;2022-12-04T13:01:45;44.00;;;21.50;;
42084;SDS011;27746;52.228;20.890;2022-12-04T13:04:18;39.85;;;20.73;;
42084;SDS011;27746;52.228;20.890;2022-12-04T13:06:50;47.33;;;21.30;;
42084;SDS011;27746;52.228;20.890;2022-12-04T13:09:23;44.47;;;19.58;;
42084;SDS011;27746;52.228;20.890;2022-12-04T13:11:56;39.95;;;20.52;;
42084;SDS011;27746;52.228;20.890;2022-12-04T13:14:26;45.58;;;21.65;;
42084;SDS011;27746;52.228;20.890;2022-12-04T13:16:54;37.17;;;20.65;;
42084;SDS011;27746;52.228;20.890;2022-12-04T13:19:24;44.05;;;21.73;;
42084;SDS011;27746;52.228;20.890;2022-12-04T13:21:55;38.75;;;18.83;;
42084;SDS011;27746;52.228;20.890;2022-12-04T13:24:40;39.90;;;21.98;;
42084;SDS011;27746;52.228;20.890;2022-12-04T13:27:24;43.42;;;21.10;;
42084;SDS011;27746;52.228;20.890;2022-12-04T13:30:02;42.13;;;19.85;;
42084;SDS011;27746;52.228;20.890;2022-12-04T13:32:39;37.15;;;20.35;;
42084;SDS011;27746;52.228;20.890;2022-12-04T13:35:43;38.65;;;20.42;;
42084;SDS011;27746;52.228;20.890;2022-12-04T13:38:32;33.95;;;19.95;;
42084;SDS011;27746;52.228;20.890;2022-12-04T13:41:06;40.65;;;21.25;;
42084;SDS011;27746;52.228;20.890;2022-12-04T13:43:43;37.25;;;18.80;;
42084;SDS011;27746;52.228;20.890;2022-12-04T13:46:21;41.63;;;19.50;;
42084;SDS011;27746;52.228;20.890;2022-12-04T13:48:52;36.70;;;19.85;;
42084;SDS011;27746;52.228;20.890;2022-12-04T13:51:33;45.95;;;21.95;;
42084;SDS011;27746;52.228;20.890;2022-12-04T13:54:17;44.10;;;22.25;;
42084;SDS011;27746;52.228;20.890;2022-12-04T13:56:50;50.90;;;24.02;;
42084;SDS011;27746;52.228;20.890;2022-12-04T13:59:20;49.90;;;23.00;;
42084;SDS011;27746;52.228;20.890;2022-12-04T14:02:02;44.63;;;22.67;;
42084;SDS011;27746;52.228;20.890;2022-12-04T14:04:45;46.72;;;22.20;;
42084;SDS011;27746;52.228;20.890;2022-12-04T14:07:21;48.35;;;23.30;;
42084;SDS011;27746;52.228;20.890;2022-12-04T14:09:51;45.60;;;21.88;;
42084;SDS011;27746;52.228;20.890;2022-12-04T14:12:23;42.92;;;22.98;;
42084;SDS011;27746;52.228;20.890;2022-12-04T14:14:52;49.33;;;22.65;;
42084;SDS011;27746;52.228;20.890;2022-12-04T14:17:24;49.92;;;23.80;;
42084;SDS011;27746;52.228;20.890;2022-12-04T14:19:53;47.33;;;23.05;;
42084;SDS011;27746;52.228;20.890;2022-12-04T14:22:27;39.60;;;20.80;;
42084;SDS011;27746;52.228;20.890;2022-12-04T14:25:05;41.45;;;21.33;;
42084;SDS011;27746;52.228;20.890;2022-12-04T14:27:45;42.20;;;21.55;;
42084;SDS011;27746;52.228;20.890;2022-12-04T14:30:16;42.88;;;21.27;;
42084;SDS011;27746;52.228;20.890;2022-12-04T14:32:47;44.97;;;20.30;;
42084;SDS011;27746;52.228;20.890;2022-12-04T14:35:16;42.25;;;22.42;;
42084;SDS011;27746;52.228;20.890;2022-12-04T14:37:49;42.40;;;20.67;;